Time;durP1;ratioP1;P1;durP2;ratioP2;P2;SDS_P1;SDS_P2;PMS_P1;PMS_P2;Temp;Humidity;BMP_temperature;BMP_pressure;BME280_temperature;BME280_humidity;BME280_pressure;Samples;Min_cycle;Max_cycle;Signal;HPM_P1;HPM_P2
2024/03/06 00:00:44;;;;;;;18.43;11.07;;;8.10;99.90;;;;;;4994390;28;20488;-70
2024/03/06 00:03:10;;;;;;;21.30;11.60;;;8.20;99.90;;;;;;4991388;28;20436;-71
2024/03/06 00:05:37;;;;;;;13.53;8.40;;;8.30;99.90;;;;;;4996948;28;20454;-71
2024/03/06 00:08:04;;;;;;;14.00;8.57;;;8.40;99.90;;;;;;4995839;28;20464;-70
2024/03/06 00:10:31;;;;;;;16.10;9.53;;;8.40;99.90;;;;;;4998723;28;20482;-71
2024/03/06 00:12:58;;;;;;;18.60;11.37;;;8.40;99.90;;;;;;4994218;28;20484;-71
2024/03/06 00:15:27;;;;;;;20.47;10.30;;;8.30;99.90;;;;;;4993627;28;20476;-70
2024/03/06 00:17:54;;;;;;;15.67;9.23;;;8.30;99.90;;;;;;4995257;28;20867;-70
2024/03/06 00:20:21;;;;;;;25.33;12.17;;;8.20;99.90;;;;;;5002654;28;20488;-70
2024/03/06 00:22:48;;;;;;;16.30;10.40;;;8.20;99.90;;;;;;5002377;28;20463;-70
2024/03/06 00:25:15;;;;;;;19.10;10.83;;;8.20;99.90;;;;;;5005513;28;20937;-70
2024/03/06 00:27:41;;;;;;;19.63;9.80;;;8.20;99.90;;;;;;5001945;28;20469;-71
2024/03/06 00:30:09;;;;;;;18.07;9.67;;;8.20;99.90;;;;;;5001891;28;20547;-72
2024/03/06 00:32:37;;;;;;;13.30;9.77;;;8.10;99.90;;;;;;4997862;28;20503;-70
2024/03/06 00:35:05;;;;;;;20.87;11.57;;;8.20;99.90;;;;;;4997479;28;20470;-70
2024/03/06 00:37:31;;;;;;;16.23;10.30;;;8.20;99.90;;;;;;4997540;28;20461;-70
2024/03/06 00:39:58;;;;;;;15.53;10.23;;;8.30;99.90;;;;;;5003656;28;20484;-70
2024/03/06 00:42:25;;;;;;;18.57;12.07;;;8.30;99.90;;;;;;4998264;28;20508;-70
2024/03/06 00:44:51;;;;;;;23.37;10.57;;;8.20;99.90;;;;;;5002711;28;20895;-70
2024/03/06 00:47:18;;;;;;;21.33;11.07;;;8.30;99.90;;;;;;4995826;28;20465;-70
2024/03/06 00:49:46;;;;;;;19.37;11.13;;;8.20;99.90;;;;;;4999143;28;20831;-70
2024/03/06 00:52:13;;;;;;;13.17;8.37;;;8.10;99.90;;;;;;4994822;28;20490;-70
2024/03/06 00:54:39;;;;;;;25.13;12.83;;;7.90;99.90;;;;;;4997459;28;20965;-70
2024/03/06 00:57:07;;;;;;;18.60;10.10;;;8.00;99.90;;;;;;4997640;28;20433;-70
2024/03/06 00:59:34;;;;;;;21.27;12.27;;;8.10;99.90;;;;;;4998663;28;20494;-70
2024/03/06 01:02:01;;;;;;;17.40;8.77;;;8.00;99.90;;;;;;4999264;28;20464;-70
2024/03/06 01:04:28;;;;;;;15.93;9.13;;;7.80;99.90;;;;;;5001763;28;20775;-70
2024/03/06 01:06:56;;;;;;;23.03;11.30;;;7.70;99.90;;;;;;4997270;28;20472;-70
2024/03/06 01:09:23;;;;;;;19.13;9.53;;;7.70;99.90;;;;;;5001817;28;20536;-70
2024/03/06 01:11:50;;;;;;;17.33;10.47;;;7.90;99.90;;;;;;4998357;28;20484;-70
2024/03/06 01:14:17;;;;;;;19.77;12.13;;;7.90;99.90;;;;;;5008403;28;20792;-70
2024/03/06 01:16:44;;;;;;;24.07;10.80;;;8.00;99.90;;;;;;4996971;28;20566;-70
2024/03/06 01:19:10;;;;;;;16.80;9.73;;;8.10;99.90;;;;;;4992751;28;20485;-70
2024/03/06 01:21:38;;;;;;;18.33;9.70;;;8.10;99.90;;;;;;5006867;28;20762;-70
2024/03/06 01:24:07;;;;;;;18.90;9.67;;;8.00;99.90;;;;;;4995898;28;20471;-70
2024/03/06 01:26:33;;;;;;;18.27;9.30;;;7.90;99.90;;;;;;4994262;28;20552;-70
2024/03/06 01:29:00;;;;;;;23.97;11.83;;;7.80;99.90;;;;;;4999455;28;20473;-70
2024/03/06 01:31:27;;;;;;;13.07;9.77;;;7.70;99.90;;;;;;4998325;28;20897;-70
2024/03/06 01:33:54;;;;;;;14.43;10.10;;;7.80;99.90;;;;;;4997128;28;20431;-70
2024/03/06 01:36:20;;;;;;;19.43;9.53;;;7.80;99.90;;;;;;4998831;28;20459;-70
2024/03/06 01:38:47;;;;;;;14.80;9.23;;;7.70;99.90;;;;;;4994178;28;20461;-70
2024/03/06 01:41:15;;;;;;;18.63;11.83;;;7.60;99.90;;;;;;4999634;28;20457;-70
2024/03/06 01:43:42;;;;;;;18.07;11.00;;;7.60;99.90;;;;;;4993727;28;20455;-70
2024/03/06 01:46:09;;;;;;;18.07;9.37;;;7.60;99.90;;;;;;4999340;28;20440;-70
2024/03/06 01:48:36;;;;;;;19.57;9.87;;;7.80;99.90;;;;;;4993246;28;21131;-70
2024/03/06 01:51:04;;;;;;;14.53;8.63;;;7.60;99.90;;;;;;4982146;28;22706;-70
2024/03/06 01:53:33;;;;;;;21.90;11.97;;;7.50;99.90;;;;;;4996195;28;20853;-70
2024/03/06 01:56:01;;;;;;;17.60;9.67;;;7.50;99.90;;;;;;4989680;28;20922;-70
2024/03/06 01:58:30;;;;;;;15.53;9.23;;;7.40;99.90;;;;;;4997604;28;20469;-70
2024/03/06 02:00:57;;;;;;;13.20;8.57;;;7.30;99.90;;;;;;4994108;28;20436;-70
2024/03/06 02:03:26;;;;;;;17.47;7.93;;;7.30;99.90;;;;;;4979713;28;20454;-70
2024/03/06 02:05:54;;;;;;;15.77;10.20;;;7.30;99.90;;;;;;4991168;28;20460;-70
2024/03/06 02:08:21;;;;;;;11.70;8.13;;;7.30;99.90;;;;;;4993769;28;20461;-70
2024/03/06 02:10:47;;;;;;;15.47;8.50;;;7.40;99.90;;;;;;4992596;28;20511;-71
2024/03/06 02:13:14;;;;;;;18.00;8.70;;;7.40;99.90;;;;;;4996659;28;20477;-71
2024/03/06 02:15:43;;;;;;;12.00;7.07;;;7.50;99.90;;;;;;4999240;28;20458;-71
2024/03/06 02:18:09;;;;;;;14.43;9.53;;;7.50;99.90;;;;;;4988492;28;20470;-71
2024/03/06 02:20:39;;;;;;;14.40;9.70;;;7.50;99.90;;;;;;4990302;28;20460;-71
2024/03/06 02:23:06;;;;;;;15.80;9.70;;;7.60;99.90;;;;;;4999014;28;20470;-71
2024/03/06 02:25:33;;;;;;;17.23;10.53;;;7.60;99.90;;;;;;4992560;28;20532;-70
2024/03/06 02:28:00;;;;;;;17.10;10.20;;;7.50;99.90;;;;;;4996917;28;21067;-70
2024/03/06 02:30:27;;;;;;;21.57;9.70;;;7.50;99.90;;;;;;4994385;28;20463;-70
2024/03/06 02:32:53;;;;;;;22.80;12.10;;;7.50;99.90;;;;;;4988883;28;20946;-70
2024/03/06 02:35:20;;;;;;;25.27;10.53;;;7.50;99.90;;;;;;4993938;28;20469;-70
2024/03/06 02:37:48;;;;;;;27.93;10.60;;;7.30;99.90;;;;;;4991569;28;21257;-70
2024/03/06 02:40:15;;;;;;;26.77;10.33;;;7.30;99.90;;;;;;4993617;28;25641;-70
2024/03/06 02:42:41;;;;;;;19.37;8.97;;;7.20;99.90;;;;;;4997887;28;20457;-70
2024/03/06 02:45:09;;;;;;;15.40;10.67;;;7.20;99.90;;;;;;5002838;28;20447;-70
2024/03/06 02:47:36;;;;;;;21.60;11.00;;;7.30;99.90;;;;;;5004269;28;20480;-70
2024/03/06 02:50:03;;;;;;;17.43;10.27;;;7.40;99.90;;;;;;5000971;28;20571;-70
2024/03/06 02:52:29;;;;;;;25.63;9.90;;;7.30;99.90;;;;;;4989667;28;20492;-70
2024/03/06 02:54:58;;;;;;;18.80;10.70;;;7.30;99.90;;;;;;4999573;28;20839;-70
2024/03/06 02:57:27;;;;;;;21.60;12.90;;;7.20;99.90;;;;;;4993946;28;20440;-70
2024/03/06 02:59:54;;;;;;;21.53;11.10;;;7.30;99.90;;;;;;4994743;28;20461;-70
2024/03/06 03:02:20;;;;;;;14.57;9.77;;;7.30;99.90;;;;;;4996524;28;20824;-70
2024/03/06 03:04:47;;;;;;;17.73;10.13;;;7.30;99.90;;;;;;4996910;28;20461;-70
2024/03/06 03:07:14;;;;;;;15.53;9.47;;;7.40;99.90;;;;;;4988857;28;20537;-70
2024/03/06 03:09:41;;;;;;;15.47;9.80;;;7.40;99.90;;;;;;4996404;28;20821;-70
2024/03/06 03:12:11;;;;;;;14.87;9.03;;;7.50;99.90;;;;;;4995305;28;21250;-70
2024/03/06 03:14:37;;;;;;;21.43;9.97;;;7.50;99.90;;;;;;4995741;28;20551;-70
2024/03/06 03:17:07;;;;;;;17.63;9.97;;;7.30;99.90;;;;;;4990843;28;20492;-70
2024/03/06 03:19:34;;;;;;;31.43;14.60;;;7.30;99.90;;;;;;4995897;28;20477;-70
2024/03/06 03:22:04;;;;;;;17.20;9.40;;;7.40;99.90;;;;;;4987286;28;20440;-70
2024/03/06 03:24:30;;;;;;;20.93;10.87;;;7.30;99.90;;;;;;4985282;28;20975;-70
2024/03/06 03:26:57;;;;;;;13.13;9.20;;;7.30;99.90;;;;;;4991942;28;20469;-70
2024/03/06 03:29:25;;;;;;;13.63;7.43;;;7.30;99.90;;;;;;4997565;28;20485;-70
2024/03/06 03:31:53;;;;;;;15.20;9.20;;;7.20;99.90;;;;;;4993736;28;20458;-70
2024/03/06 03:34:20;;;;;;;17.80;9.87;;;7.20;99.90;;;;;;4999004;28;20432;-70
2024/03/06 03:36:48;;;;;;;12.53;7.83;;;7.00;99.90;;;;;;4996309;28;20556;-70
2024/03/06 03:39:16;;;;;;;17.07;10.50;;;7.00;99.90;;;;;;4995823;28;20567;-70
2024/03/06 03:41:46;;;;;;;21.93;11.30;;;6.90;99.90;;;;;;4991525;28;20543;-70
2024/03/06 03:44:13;;;;;;;24.20;10.50;;;6.90;99.90;;;;;;4995164;28;20836;-70
2024/03/06 03:46:41;;;;;;;15.50;9.70;;;6.80;99.90;;;;;;4987163;28;20458;-69
2024/03/06 03:49:08;;;;;;;10.07;7.93;;;6.70;99.90;;;;;;4998656;28;20481;-70
2024/03/06 03:51:35;;;;;;;16.73;9.97;;;6.80;99.90;;;;;;4996095;28;20465;-70
2024/03/06 03:54:02;;;;;;;21.67;10.93;;;6.70;99.90;;;;;;4995013;28;20484;-70
2024/03/06 03:56:29;;;;;;;14.40;8.80;;;6.70;99.90;;;;;;4997457;28;20966;-70
2024/03/06 03:58:57;;;;;;;16.93;9.00;;;6.60;99.90;;;;;;4992971;28;21020;-70
2024/03/06 04:01:24;;;;;;;21.77;11.23;;;6.50;99.90;;;;;;4994222;28;20469;-71
2024/03/06 04:03:52;;;;;;;21.07;10.57;;;6.40;99.90;;;;;;4997691;28;20485;-69
2024/03/06 04:06:19;;;;;;;14.67;10.10;;;6.30;99.90;;;;;;5004043;28;20438;-69
2024/03/06 04:08:46;;;;;;;16.23;9.63;;;6.20;99.90;;;;;;5001479;28;20459;-69
2024/03/06 04:11:13;;;;;;;15.43;8.97;;;6.10;99.90;;;;;;4998357;28;20456;-70
2024/03/06 04:13:40;;;;;;;19.80;9.17;;;6.20;99.90;;;;;;4990237;28;20463;-70
2024/03/06 04:16:07;;;;;;;15.67;8.63;;;6.10;99.90;;;;;;4990980;28;20488;-70
2024/03/06 04:18:34;;;;;;;17.53;7.53;;;6.10;99.90;;;;;;4994843;28;20443;-70
2024/03/06 04:21:05;;;;;;;12.30;8.30;;;6.10;99.90;;;;;;4998006;28;21159;-70
2024/03/06 04:23:31;;;;;;;13.13;7.80;;;6.00;99.90;;;;;;5000539;28;20465;-70
2024/03/06 04:25:58;;;;;;;21.50;9.00;;;6.10;99.90;;;;;;5000146;28;20461;-70
2024/03/06 04:28:25;;;;;;;16.93;8.27;;;6.00;99.90;;;;;;5003211;28;20528;-70
2024/03/06 04:30:52;;;;;;;23.13;9.60;;;6.00;99.90;;;;;;4998606;28;20560;-70
2024/03/06 04:33:18;;;;;;;28.50;11.00;;;6.00;99.90;;;;;;4998364;28;20477;-70
2024/03/06 04:35:45;;;;;;;30.57;11.37;;;5.90;99.90;;;;;;4988199;28;20465;-69
2024/03/06 04:38:13;;;;;;;28.70;9.83;;;6.00;99.90;;;;;;4995292;28;20599;-70
2024/03/06 04:40:40;;;;;;;30.10;10.23;;;6.00;99.90;;;;;;4994457;28;20506;-70
2024/03/06 04:43:07;;;;;;;63.63;13.20;;;5.90;99.90;;;;;;4992576;28;20465;-70
2024/03/06 04:45:34;;;;;;;24.13;11.60;;;5.80;99.90;;;;;;4985489;28;20900;-70
2024/03/06 04:48:01;;;;;;;10.00;7.97;;;5.80;99.90;;;;;;5000155;28;20464;-70
2024/03/06 04:50:28;;;;;;;18.07;8.10;;;5.50;99.90;;;;;;4991970;28;20478;-70
2024/03/06 04:52:56;;;;;;;20.60;10.10;;;5.40;99.90;;;;;;4934019;28;1836667;-70
2024/03/06 04:55:25;;;;;;;46.40;12.10;;;5.40;99.90;;;;;;4998619;28;20262;-70
2024/03/06 04:57:52;;;;;;;22.47;10.60;;;5.10;99.90;;;;;;4999376;28;20465;-70
2024/03/06 05:00:19;;;;;;;22.90;11.47;;;5.10;99.90;;;;;;5012169;28;20470;-70
2024/03/06 05:02:46;;;;;;;14.10;7.70;;;5.10;99.90;;;;;;5006394;28;20465;-71
2024/03/06 05:05:13;;;;;;;14.60;8.73;;;5.20;99.90;;;;;;5001850;28;20952;-70
2024/03/06 05:07:39;;;;;;;38.53;10.97;;;5.10;99.90;;;;;;4993341;28;20427;-70
2024/03/06 05:10:08;;;;;;;37.30;11.63;;;5.10;99.90;;;;;;4994569;28;20486;-70
2024/03/06 05:12:36;;;;;;;47.07;12.97;;;5.00;99.90;;;;;;4994812;28;20555;-70
2024/03/06 05:15:04;;;;;;;16.70;9.50;;;4.80;99.90;;;;;;5001141;28;20440;-70
2024/03/06 05:17:30;;;;;;;16.83;8.17;;;4.90;99.90;;;;;;4994454;28;20510;-70
2024/03/06 05:19:57;;;;;;;35.67;9.83;;;5.10;99.90;;;;;;5004606;28;20882;-70
2024/03/06 05:22:24;;;;;;;21.03;8.53;;;5.00;99.90;;;;;;4994101;28;20455;-70
2024/03/06 05:24:50;;;;;;;21.70;10.67;;;5.00;99.90;;;;;;4997651;28;20431;-70
2024/03/06 05:27:17;;;;;;;10.40;6.73;;;5.00;99.90;;;;;;5002031;28;20476;-70
2024/03/06 05:29:46;;;;;;;18.67;8.50;;;5.10;99.90;;;;;;5004588;28;20565;-70
2024/03/06 05:32:13;;;;;;;14.03;8.20;;;5.10;99.90;;;;;;4999797;28;20457;-70
2024/03/06 05:34:40;;;;;;;24.33;9.23;;;5.00;99.90;;;;;;4997166;28;20467;-70
2024/03/06 05:37:07;;;;;;;61.90;12.17;;;4.90;99.90;;;;;;4996769;28;20470;-70
2024/03/06 05:39:35;;;;;;;27.03;9.37;;;4.80;99.90;;;;;;5003434;28;20964;-70
2024/03/06 05:42:03;;;;;;;15.63;8.40;;;4.90;99.90;;;;;;5000761;28;21427;-70
2024/03/06 05:44:30;;;;;;;38.77;8.80;;;4.80;99.90;;;;;;5001950;28;20439;-70
2024/03/06 05:46:58;;;;;;;18.00;7.53;;;4.70;99.90;;;;;;4996383;28;21206;-70
2024/03/06 05:49:26;;;;;;;19.70;7.00;;;4.80;99.90;;;;;;4993955;28;20458;-71
2024/03/06 05:51:53;;;;;;;14.60;7.20;;;4.80;99.90;;;;;;5011102;23;20561;-70
2024/03/06 05:54:20;;;;;;;30.33;11.80;;;4.80;99.90;;;;;;4994177;28;20490;-70
2024/03/06 05:56:49;;;;;;;26.43;9.67;;;4.80;99.90;;;;;;4997720;28;20462;-70
2024/03/06 05:59:16;;;;;;;52.27;11.50;;;4.80;99.90;;;;;;5000719;28;20550;-70
2024/03/06 06:01:43;;;;;;;32.57;9.97;;;4.70;99.90;;;;;;5002746;28;20511;-70
2024/03/06 06:04:11;;;;;;;43.43;10.93;;;4.60;99.90;;;;;;5005844;28;20825;-70
2024/03/06 06:06:38;;;;;;;34.50;11.27;;;4.60;99.90;;;;;;4991089;28;20543;-70
2024/03/06 06:09:06;;;;;;;18.83;8.80;;;4.60;99.90;;;;;;4989287;28;20452;-71
2024/03/06 06:11:33;;;;;;;24.20;9.33;;;4.60;99.90;;;;;;4997250;28;20508;-70
2024/03/06 06:14:00;;;;;;;10.57;7.50;;;4.50;99.90;;;;;;4993736;28;21274;-70
2024/03/06 06:16:26;;;;;;;9.17;7.13;;;4.60;99.90;;;;;;4998426;28;20456;-71
2024/03/06 06:18:53;;;;;;;18.43;9.90;;;4.70;99.90;;;;;;4997020;28;20492;-71
2024/03/06 06:21:21;;;;;;;18.10;7.40;;;4.70;99.90;;;;;;4996297;28;20777;-70
2024/03/06 06:23:48;;;;;;;15.67;10.50;;;4.70;99.90;;;;;;4998031;28;20477;-71
2024/03/06 06:26:15;;;;;;;11.87;8.50;;;4.60;99.90;;;;;;5005187;28;20559;-70
2024/03/06 06:28:42;;;;;;;16.10;11.00;;;4.60;99.90;;;;;;4998499;28;21010;-70
2024/03/06 06:31:09;;;;;;;26.10;10.37;;;4.70;99.90;;;;;;4995722;28;20444;-70
2024/03/06 06:33:35;;;;;;;22.97;11.80;;;4.80;99.90;;;;;;4994982;28;20800;-70
2024/03/06 06:36:02;;;;;;;23.70;12.00;;;4.80;99.90;;;;;;4999302;28;20465;-71
2024/03/06 06:38:31;;;;;;;16.23;11.97;;;4.90;99.90;;;;;;5000490;28;20443;-70
2024/03/06 06:40:58;;;;;;;17.43;10.87;;;4.90;99.90;;;;;;4997106;28;20509;-70
2024/03/06 06:43:25;;;;;;;23.97;12.60;;;4.90;99.90;;;;;;4999017;28;20454;-70
2024/03/06 06:45:52;;;;;;;32.67;13.57;;;4.80;99.90;;;;;;4986491;28;21310;-70
2024/03/06 06:48:19;;;;;;;21.27;12.40;;;4.80;99.90;;;;;;4993733;28;20467;-70
2024/03/06 06:50:47;;;;;;;14.30;9.57;;;4.80;99.90;;;;;;5001462;28;20562;-70
2024/03/06 06:53:14;;;;;;;16.00;9.60;;;4.80;99.90;;;;;;5002988;28;20561;-70
2024/03/06 06:55:42;;;;;;;15.13;8.90;;;4.70;99.90;;;;;;5002551;28;21010;-70
2024/03/06 06:58:09;;;;;;;19.43;10.50;;;4.70;99.90;;;;;;5000208;28;20468;-70
2024/03/06 07:00:37;;;;;;;12.60;7.77;;;4.80;99.90;;;;;;5002488;28;20552;-70
2024/03/06 07:03:04;;;;;;;8.87;7.87;;;4.80;99.90;;;;;;4999605;28;20579;-70
2024/03/06 07:05:30;;;;;;;16.83;9.93;;;4.90;99.90;;;;;;5002607;28;20473;-71
2024/03/06 07:07:57;;;;;;;11.27;7.47;;;5.20;99.90;;;;;;4997637;28;20550;-71
2024/03/06 07:10:24;;;;;;;16.83;9.87;;;5.20;99.90;;;;;;4994569;28;20459;-69
2024/03/06 07:12:52;;;;;;;20.83;9.27;;;5.20;99.90;;;;;;5000757;28;20447;-70
2024/03/06 07:15:19;;;;;;;17.20;8.67;;;5.30;99.90;;;;;;4995276;28;20459;-70
2024/03/06 07:17:46;;;;;;;18.10;9.03;;;5.40;99.90;;;;;;5003036;28;20465;-70
2024/03/06 07:20:14;;;;;;;31.83;10.87;;;5.60;99.90;;;;;;5001581;28;20470;-70
2024/03/06 07:22:40;;;;;;;16.23;10.97;;;5.70;99.90;;;;;;4997985;28;20461;-70
2024/03/06 07:25:07;;;;;;;18.63;9.40;;;5.70;99.90;;;;;;5000932;28;20937;-70
2024/03/06 07:27:34;;;;;;;15.50;9.87;;;5.80;99.90;;;;;;4998225;28;20461;-70
2024/03/06 07:30:03;;;;;;;22.33;9.93;;;5.90;99.90;;;;;;4998014;28;20465;-70
2024/03/06 07:32:29;;;;;;;20.70;10.13;;;6.20;99.90;;;;;;5003728;28;20931;-70
2024/03/06 07:34:58;;;;;;;15.83;9.37;;;6.30;99.90;;;;;;5003658;28;20935;-70
2024/03/06 07:37:24;;;;;;;20.40;12.57;;;6.30;99.90;;;;;;4995719;28;20535;-70
2024/03/06 07:39:51;;;;;;;20.50;10.53;;;6.60;99.90;;;;;;5002937;28;20463;-70
2024/03/06 07:42:18;;;;;;;24.07;13.50;;;7.10;99.90;;;;;;5005317;28;20461;-70
2024/03/06 07:44:45;;;;;;;28.83;13.00;;;7.50;99.90;;;;;;5003291;28;20432;-70
2024/03/06 07:47:14;;;;;;;18.80;9.47;;;8.00;99.90;;;;;;5000333;28;21227;-70
2024/03/06 07:49:41;;;;;;;16.67;10.60;;;8.20;99.90;;;;;;4998116;28;20509;-70
2024/03/06 07:52:08;;;;;;;19.47;11.20;;;8.60;99.90;;;;;;4995781;28;20477;-70
2024/03/06 07:54:34;;;;;;;22.33;9.80;;;8.80;99.90;;;;;;5001781;28;20487;-70
2024/03/06 07:57:01;;;;;;;16.70;10.10;;;9.30;99.90;;;;;;4997234;28;20454;-70
2024/03/06 07:59:28;;;;;;;17.90;10.47;;;9.60;99.90;;;;;;5002158;28;20512;-70
2024/03/06 08:01:55;;;;;;;23.80;11.20;;;10.00;99.90;;;;;;5003171;28;20484;-69
2024/03/06 08:04:24;;;;;;;19.73;10.10;;;10.50;99.90;;;;;;5001921;28;20520;-70
2024/03/06 08:06:50;;;;;;;11.60;8.60;;;10.80;99.90;;;;;;4997289;28;20464;-70
2024/03/06 08:09:19;;;;;;;16.97;9.87;;;11.20;99.90;;;;;;5002791;28;20603;-70
2024/03/06 08:11:46;;;;;;;18.03;10.53;;;11.80;99.90;;;;;;5000625;28;20917;-70
2024/03/06 08:14:14;;;;;;;18.23;10.70;;;11.90;99.90;;;;;;4999941;28;20612;-69
2024/03/06 08:16:42;;;;;;;12.73;9.63;;;12.00;99.90;;;;;;5000565;28;20547;-69
2024/03/06 08:19:09;;;;;;;17.83;10.57;;;12.40;99.90;;;;;;5001018;28;20544;-69
2024/03/06 08:21:37;;;;;;;21.07;10.97;;;13.00;99.90;;;;;;5004881;28;20534;-69
2024/03/06 08:24:04;;;;;;;15.90;9.77;;;13.20;99.90;;;;;;4997951;28;20988;-69
2024/03/06 08:26:31;;;;;;;21.40;10.70;;;13.20;99.90;;;;;;5006882;28;20806;-70
2024/03/06 08:28:58;;;;;;;16.50;10.20;;;13.60;99.90;;;;;;4995115;28;20565;-69
2024/03/06 08:31:25;;;;;;;16.97;9.57;;;14.10;99.90;;;;;;5000181;28;20470;-69
2024/03/06 08:33:52;;;;;;;19.53;12.23;;;14.40;99.90;;;;;;5000910;28;20488;-70
2024/03/06 08:36:20;;;;;;;22.73;10.83;;;14.90;99.90;;;;;;4997142;28;20480;-70
2024/03/06 08:38:49;;;;;;;16.70;11.63;;;15.60;99.90;;;;;;4999550;28;20555;-69
2024/03/06 08:41:15;;;;;;;24.00;11.33;;;15.80;99.90;;;;;;5000026;28;20577;-69
2024/03/06 08:43:42;;;;;;;21.90;11.83;;;16.10;99.90;;;;;;5005435;28;20461;-69
2024/03/06 08:46:09;;;;;;;25.17;12.50;;;16.40;99.90;;;;;;4997633;28;20457;-69
2024/03/06 08:48:36;;;;;;;22.60;13.50;;;16.50;99.90;;;;;;4997028;28;20465;-69
2024/03/06 08:51:03;;;;;;;22.33;13.30;;;16.90;99.90;;;;;;4998173;28;20509;-69
2024/03/06 08:53:29;;;;;;;31.13;12.03;;;17.30;99.90;;;;;;5003022;28;20873;-70
2024/03/06 08:55:57;;;;;;;20.83;11.93;;;17.70;99.90;;;;;;5001124;28;20500;-70
2024/03/06 08:58:23;;;;;;;19.90;12.63;;;17.70;99.90;;;;;;5002850;28;20453;-69
2024/03/06 09:00:50;;;;;;;20.87;11.60;;;17.40;99.90;;;;;;5004041;28;20550;-69
2024/03/06 09:03:17;;;;;;;20.80;14.10;;;17.80;99.90;;;;;;5001814;28;20958;-70
2024/03/06 09:05:44;;;;;;;21.97;13.13;;;18.30;99.90;;;;;;5000694;28;20464;-69
2024/03/06 09:08:12;;;;;;;20.53;12.60;;;18.60;99.90;;;;;;5000980;28;20458;-69
2024/03/06 09:10:39;;;;;;;23.10;14.90;;;18.90;99.90;;;;;;5003596;28;20489;-70
2024/03/06 09:13:07;;;;;;;26.10;11.90;;;19.30;99.90;;;;;;5004875;28;20471;-69
2024/03/06 09:15:34;;;;;;;17.73;13.17;;;19.10;99.90;;;;;;5000738;28;20584;-69
2024/03/06 09:18:00;;;;;;;26.77;15.53;;;19.40;99.90;;;;;;5001771;28;20952;-70
2024/03/06 09:20:27;;;;;;;18.03;12.37;;;19.30;99.90;;;;;;4999638;28;20483;-69
2024/03/06 09:22:56;;;;;;;23.30;11.70;;;19.70;99.90;;;;;;5001836;28;20888;-69
2024/03/06 09:25:23;;;;;;;19.90;13.33;;;19.90;99.90;;;;;;5000705;28;20496;-69
2024/03/06 09:27:50;;;;;;;18.23;13.00;;;20.50;99.90;;;;;;5000980;28;20457;-70
2024/03/06 09:30:18;;;;;;;18.40;11.63;;;20.50;99.90;;;;;;4998504;28;22374;-70
2024/03/06 09:32:45;;;;;;;18.80;12.13;;;20.60;99.90;;;;;;4996937;28;20464;-70
2024/03/06 09:35:11;;;;;;;20.60;11.97;;;20.60;99.90;;;;;;4998864;28;20491;-70
2024/03/06 09:37:38;;;;;;;21.30;13.27;;;20.40;99.90;;;;;;5000455;28;20480;-70
2024/03/06 09:40:07;;;;;;;22.77;13.30;;;20.80;99.90;;;;;;4997590;28;20493;-70
2024/03/06 09:42:34;;;;;;;21.27;13.07;;;21.30;99.90;;;;;;5003732;28;20484;-70
2024/03/06 09:45:01;;;;;;;23.73;13.43;;;21.50;99.90;;;;;;5004118;28;20937;-68
2024/03/06 09:47:35;;;;;;;21.50;12.67;;;21.90;99.90;;;;;;5002498;28;20465;-69
2024/03/06 09:50:05;;;;;;;26.03;12.60;;;21.50;99.90;;;;;;4997770;28;20477;-69
2024/03/06 09:52:34;;;;;;;23.83;11.70;;;21.30;99.90;;;;;;4997788;28;20469;-68
2024/03/06 09:55:02;;;;;;;18.20;12.83;;;21.70;99.90;;;;;;5002864;28;20481;-69
2024/03/06 09:57:29;;;;;;;17.40;12.50;;;21.60;99.90;;;;;;5000359;28;20552;-69
2024/03/06 09:59:55;;;;;;;19.40;12.73;;;21.90;99.90;;;;;;5000958;28;20489;-69
2024/03/06 10:02:32;;;;;;;17.30;10.77;;;22.60;99.90;;;;;;5001244;28;20465;-70
2024/03/06 10:05:01;;;;;;;23.80;13.00;;;22.70;99.90;;;;;;4999532;28;20623;-69
2024/03/06 10:07:28;;;;;;;17.27;11.77;;;22.80;99.90;;;;;;4997302;28;20458;-69
2024/03/06 10:09:56;;;;;;;14.00;12.50;;;22.10;99.80;;;;;;5001978;28;20489;-69
2024/03/06 10:12:24;;;;;;;15.33;11.10;;;21.20;99.90;;;;;;4998108;28;20817;-69
2024/03/06 10:14:51;;;;;;;22.50;12.57;;;21.80;99.90;;;;;;4998253;28;20503;-69
2024/03/06 10:17:22;;;;;;;15.90;10.53;;;22.10;99.90;;;;;;4996543;28;20457;-69
2024/03/06 10:19:53;;;;;;;15.37;10.83;;;22.50;99.90;;;;;;5001872;28;20903;-69
2024/03/06 10:22:21;;;;;;;15.97;10.10;;;22.70;99.80;;;;;;5003516;28;20466;-69
2024/03/06 10:24:48;;;;;;;17.73;7.87;;;22.90;99.90;;;;;;4999726;28;20458;-69
2024/03/06 10:27:17;;;;;;;9.97;8.30;;;22.80;98.20;;;;;;4997452;28;20466;-70
2024/03/06 10:29:44;;;;;;;14.60;9.00;;;22.00;97.30;;;;;;4999417;28;20481;-70
2024/03/06 10:32:11;;;;;;;23.23;11.80;;;21.70;99.20;;;;;;4996433;28;20461;-70
2024/03/06 10:34:41;;;;;;;21.60;14.20;;;20.80;99.90;;;;;;4994556;28;20502;-70
2024/03/06 10:37:09;;;;;;;24.03;16.90;;;19.80;99.90;;;;;;4992274;28;20461;-70
2024/03/06 10:39:39;;;;;;;29.33;17.37;;;18.90;99.90;;;;;;4995545;28;20474;-69
2024/03/06 10:42:08;;;;;;;27.67;16.70;;;18.10;99.90;;;;;;4998003;28;22438;-69
2024/03/06 10:44:36;;;;;;;23.57;14.30;;;17.90;99.90;;;;;;5001241;28;20534;-70
2024/03/06 10:47:06;;;;;;;25.10;17.37;;;18.40;99.90;;;;;;4998935;28;21708;-69
2024/03/06 10:49:34;;;;;;;30.40;16.27;;;18.10;99.90;;;;;;4997950;28;20952;-70
2024/03/06 10:52:01;;;;;;;26.87;15.33;;;17.00;99.90;;;;;;4999262;28;20474;-69
2024/03/06 10:54:32;;;;;;;28.33;15.40;;;16.30;99.90;;;;;;4997476;28;20920;-69
2024/03/06 10:56:59;;;;;;;26.27;14.17;;;16.00;99.90;;;;;;4992225;28;20517;-69
2024/03/06 10:59:30;;;;;;;21.07;12.67;;;16.00;99.90;;;;;;4991954;28;20481;-69
2024/03/06 11:02:00;;;;;;;28.77;14.60;;;15.90;99.90;;;;;;4995097;28;20807;-69
2024/03/06 11:04:28;;;;;;;18.90;11.40;;;16.00;99.90;;;;;;5002229;28;20572;-69
2024/03/06 11:06:55;;;;;;;22.40;15.13;;;17.20;99.90;;;;;;5008796;28;20457;-69
2024/03/06 11:09:22;;;;;;;31.20;15.30;;;18.30;99.90;;;;;;4993151;28;20482;-69
2024/03/06 11:11:51;;;;;;;27.80;14.20;;;19.30;99.90;;;;;;4997102;28;20477;-69
2024/03/06 11:14:18;;;;;;;27.40;15.57;;;20.30;99.90;;;;;;4997111;28;20487;-70
2024/03/06 11:16:59;;;;;;;28.60;17.50;;;20.40;99.90;;;;;;4995702;28;20476;-70
2024/03/06 11:19:26;;;;;;;24.80;14.43;;;20.40;99.90;;;;;;4993358;28;21187;-70
2024/03/06 11:21:53;;;;;;;24.13;16.90;;;20.70;99.90;;;;;;4991466;28;20840;-70
2024/03/06 11:24:22;;;;;;;27.87;15.00;;;20.40;99.90;;;;;;4998538;28;21039;-70
2024/03/06 11:27:00;;;;;;;24.67;14.50;;;20.90;99.90;;;;;;4998658;28;20561;-70
2024/03/06 11:29:29;;;;;;;29.67;15.90;;;21.30;99.90;;;;;;4997154;28;20575;-70
2024/03/06 11:32:08;;;;;;;28.87;16.67;;;21.30;99.90;;;;;;5000017;28;20891;-70
2024/03/06 11:34:36;;;;;;;26.27;17.60;;;21.60;99.90;;;;;;4999070;28;21004;-70
2024/03/06 11:37:09;;;;;;;28.17;15.33;;;21.90;99.90;;;;;;4989988;28;20478;-70
2024/03/06 11:39:36;;;;;;;25.30;16.77;;;22.40;99.90;;;;;;4998700;28;20858;-70
2024/03/06 11:42:08;;;;;;;27.83;16.27;;;22.70;99.90;;;;;;4999980;28;21213;-70
2024/03/06 11:44:35;;;;;;;21.47;14.57;;;23.00;98.50;;;;;;5000960;28;20471;-69
2024/03/06 11:47:04;;;;;;;21.13;15.10;;;22.50;98.30;;;;;;4998991;28;20468;-69
2024/03/06 11:49:33;;;;;;;30.33;15.77;;;22.50;98.10;;;;;;4992148;28;21038;-70
2024/03/06 11:52:02;;;;;;;30.00;17.23;;;22.70;97.60;;;;;;5004462;23;20627;-68
2024/03/06 11:54:29;;;;;;;18.30;12.90;;;22.70;97.70;;;;;;4996380;28;20591;-69
2024/03/06 11:56:57;;;;;;;19.73;12.37;;;21.90;97.50;;;;;;4998627;28;20493;-69
2024/03/06 11:59:26;;;;;;;20.63;14.03;;;20.80;99.00;;;;;;4997985;28;20542;-68
2024/03/06 12:01:53;;;;;;;19.00;12.97;;;19.50;99.90;;;;;;4998333;28;20453;-68
2024/03/06 12:04:21;;;;;;;21.40;14.30;;;18.90;99.90;;;;;;4992094;28;20461;-69
2024/03/06 12:06:49;;;;;;;23.07;12.17;;;18.30;99.90;;;;;;4997807;28;20523;-68
2024/03/06 12:09:16;;;;;;;18.77;11.87;;;18.80;99.90;;;;;;4994178;28;20849;-69
2024/03/06 12:11:44;;;;;;;21.60;12.27;;;19.30;99.90;;;;;;4997028;28;20953;-69
2024/03/06 12:14:16;;;;;;;25.37;12.33;;;19.60;99.90;;;;;;4996935;28;20487;-69
2024/03/06 12:16:44;;;;;;;18.13;11.83;;;20.50;99.90;;;;;;4999976;28;20484;-68
2024/03/06 12:19:11;;;;;;;18.67;12.60;;;21.00;99.70;;;;;;5003129;28;20493;-69
2024/03/06 12:21:40;;;;;;;17.83;11.53;;;21.40;99.20;;;;;;4998286;28;20464;-68
2024/03/06 12:24:09;;;;;;;19.07;11.80;;;20.90;99.40;;;;;;4994621;28;20484;-69
2024/03/06 12:26:36;;;;;;;19.17;10.70;;;21.00;98.50;;;;;;5000696;28;20458;-69
2024/03/06 12:29:08;;;;;;;17.07;11.93;;;21.30;98.60;;;;;;5002145;28;20576;-69
2024/03/06 12:31:36;;;;;;;21.20;13.03;;;21.30;97.80;;;;;;4996559;28;20462;-69
2024/03/06 12:34:06;;;;;;;17.40;10.10;;;20.60;97.50;;;;;;4992125;28;20469;-69
2024/03/06 12:36:34;;;;;;;22.97;12.53;;;21.00;96.90;;;;;;4992679;28;20510;-69
2024/03/06 12:39:02;;;;;;;21.83;13.30;;;21.20;96.90;;;;;;5000525;28;20481;-69